createdAt,value
2019-04-04T00:01:47.925Z,18.00
2019-04-04T00:04:22.161Z,20.20
2019-04-04T00:06:57.820Z,18.12
2019-04-04T00:09:31.172Z,19.07
2019-04-04T00:12:06.118Z,19.67
2019-04-04T00:14:39.952Z,19.40
2019-04-04T00:17:12.862Z,18.75
2019-04-04T00:19:45.741Z,18.52
2019-04-04T00:22:18.649Z,18.85
2019-04-04T00:24:51.496Z,20.65
2019-04-04T00:27:24.411Z,18.27
2019-04-04T00:29:57.266Z,18.02
2019-04-04T00:32:30.152Z,19.57
2019-04-04T00:35:02.965Z,19.42
2019-04-04T00:37:36.530Z,20.80
2019-04-04T00:40:11.609Z,19.27
2019-04-04T00:42:44.006Z,19.02
2019-04-04T00:45:16.739Z,19.32
2019-04-04T00:47:50.547Z,20.23
2019-04-04T00:50:23.327Z,19.20
2019-04-04T00:52:56.134Z,19.60
2019-04-04T00:55:28.922Z,21.55
2019-04-04T00:58:01.798Z,20.60
2019-04-04T01:00:34.733Z,20.60
2019-04-04T01:03:07.449Z,20.70
2019-04-04T01:05:41.451Z,19.52
2019-04-04T01:08:14.275Z,21.02
2019-04-04T01:10:49.805Z,21.15
2019-04-04T01:13:23.309Z,21.40
2019-04-04T01:15:57.292Z,19.17
2019-04-04T01:18:31.602Z,19.98
2019-04-04T01:21:06.684Z,20.32
2019-04-04T01:23:40.969Z,19.95
2019-04-04T01:26:14.145Z,20.88
2019-04-04T01:28:47.015Z,20.68
2019-04-04T01:31:20.414Z,20.85
2019-04-04T01:33:53.217Z,20.70
2019-04-04T01:36:26.994Z,19.35
2019-04-04T01:39:00.272Z,20.88
2019-04-04T01:41:36.310Z,19.62
2019-04-04T01:44:11.318Z,19.05
2019-04-04T01:46:46.081Z,20.65
2019-04-04T01:49:19.124Z,19.12
2019-04-04T01:51:56.833Z,19.55
2019-04-04T01:54:27.820Z,20.48
2019-04-04T01:57:00.600Z,20.10
2019-04-04T01:59:33.436Z,21.37
2019-04-04T02:02:06.322Z,21.23
2019-04-04T02:04:40.163Z,24.15
2019-04-04T02:07:12.992Z,22.13
2019-04-04T02:09:47.435Z,21.42
2019-04-04T02:12:22.636Z,21.10
2019-04-04T02:14:55.518Z,20.60
2019-04-04T02:17:28.425Z,21.55
2019-04-04T02:20:01.457Z,20.85
2019-04-04T02:22:34.469Z,23.55
2019-04-04T02:25:09.418Z,21.35
2019-04-04T02:27:42.391Z,21.25
2019-04-04T02:30:16.516Z,21.17
2019-04-04T02:32:49.521Z,23.65
2019-04-04T02:35:22.325Z,20.95
2019-04-04T02:37:56.128Z,21.40
2019-04-04T02:40:29.105Z,21.12
2019-04-04T02:43:01.951Z,21.55
2019-04-04T02:45:35.671Z,20.43
2019-04-04T02:48:09.186Z,20.77
2019-04-04T02:50:41.975Z,20.50
2019-04-04T02:53:19.203Z,21.95
2019-04-04T02:55:49.564Z,20.77
2019-04-04T02:58:22.730Z,22.55
2019-04-04T03:00:59.261Z,20.68
2019-04-04T03:03:31.040Z,21.68
2019-04-04T03:06:03.810Z,22.75
2019-04-04T03:08:37.719Z,21.82
2019-04-04T03:11:13.123Z,22.13
2019-04-04T03:13:46.102Z,21.60
2019-04-04T03:16:21.343Z,21.37
2019-04-04T03:18:55.921Z,21.07
2019-04-04T03:21:28.709Z,21.80
2019-04-04T03:24:05.971Z,20.55
2019-04-04T03:26:35.912Z,27.05
2019-04-04T03:29:10.613Z,27.20
2019-04-04T03:31:43.355Z,22.27
2019-04-04T03:34:17.103Z,23.70
2019-04-04T03:36:49.886Z,22.48
2019-04-04T03:39:22.672Z,21.65
2019-04-04T03:41:56.518Z,21.48
2019-04-04T03:44:29.312Z,21.40
2019-04-04T03:47:02.061Z,22.00
2019-04-04T03:49:34.867Z,20.80
2019-04-04T03:52:11.255Z,23.75
2019-04-04T03:54:42.255Z,22.82
2019-04-04T03:57:15.057Z,21.85
2019-04-04T03:59:47.857Z,22.73
2019-04-04T04:02:23.970Z,21.60
2019-04-04T04:05:00.544Z,21.95
2019-04-04T04:07:31.208Z,22.42
2019-04-04T04:10:04.114Z,22.95
2019-04-04T04:12:36.863Z,22.58
2019-04-04T04:15:09.719Z,22.73
2019-04-04T04:17:45.233Z,22.22
2019-04-04T04:20:17.020Z,24.60
2019-04-04T04:22:50.985Z,21.82
2019-04-04T04:25:24.357Z,21.87
2019-04-04T04:27:57.651Z,23.27
2019-04-04T04:30:30.456Z,24.00
2019-04-04T04:33:03.362Z,24.05
2019-04-04T04:35:40.898Z,23.35
2019-04-04T04:38:10.764Z,24.05
2019-04-04T04:40:46.923Z,23.92
2019-04-04T04:43:18.141Z,23.65
2019-04-04T04:45:50.923Z,23.22
2019-04-04T04:48:25.932Z,23.90
2019-04-04T04:50:58.206Z,25.17
2019-04-04T04:53:30.996Z,22.67
2019-04-04T04:56:03.813Z,21.97
2019-04-04T04:58:36.628Z,25.12
2019-04-04T05:01:09.459Z,21.85
2019-04-04T05:03:42.312Z,25.05
2019-04-04T05:06:15.252Z,23.30
2019-04-04T05:08:48.091Z,24.92
2019-04-04T05:11:20.898Z,28.07
2019-04-04T05:13:53.651Z,37.05
2019-04-04T05:16:26.676Z,30.57
2019-04-04T05:18:59.446Z,26.90
2019-04-04T05:21:34.545Z,26.25
2019-04-04T05:24:06.908Z,25.77
2019-04-04T05:26:39.693Z,24.18
2019-04-04T05:29:13.987Z,21.17
2019-04-04T05:31:49.838Z,24.45
2019-04-04T05:34:21.579Z,23.95
2019-04-04T05:36:54.530Z,24.52
2019-04-04T05:39:27.458Z,24.57
2019-04-04T05:42:01.046Z,20.80
2019-04-04T05:44:34.381Z,22.93
2019-04-04T05:47:07.363Z,22.62
2019-04-04T05:49:40.206Z,21.10
2019-04-04T05:52:13.005Z,22.62
2019-04-04T05:54:45.928Z,22.70
2019-04-04T05:57:20.123Z,21.65
2019-04-04T05:59:55.920Z,22.70
2019-04-04T06:02:28.392Z,20.45
2019-04-04T06:05:01.494Z,23.00
2019-04-04T06:07:36.390Z,21.60
2019-04-04T06:10:11.806Z,21.12
2019-04-04T06:12:43.746Z,29.00
2019-04-04T06:15:16.585Z,28.07
2019-04-04T06:17:49.366Z,27.60
2019-04-04T06:20:22.286Z,23.30
2019-04-04T06:22:55.097Z,19.87
2019-04-04T06:25:34.291Z,22.25
2019-04-04T06:28:04.657Z,19.92
2019-04-04T06:31:26.936Z,20.48
2019-04-04T06:33:57.338Z,20.10
2019-04-04T06:36:30.243Z,20.90
2019-04-04T06:39:04.695Z,17.62
2019-04-04T06:41:37.732Z,19.35
2019-04-04T06:44:12.753Z,19.42
2019-04-04T06:46:45.162Z,19.32
2019-04-04T06:49:17.987Z,18.62
2019-04-04T06:51:51.835Z,19.67
2019-04-04T06:54:25.636Z,18.32
2019-04-04T06:56:59.404Z,16.52
2019-04-04T06:59:33.039Z,19.05
2019-04-04T07:02:06.240Z,17.50
2019-04-04T07:04:39.148Z,17.87
2019-04-04T07:07:12.728Z,16.62
2019-04-04T07:09:46.029Z,16.70
2019-04-04T07:12:24.199Z,17.35
2019-04-04T07:14:53.513Z,17.15
2019-04-04T07:17:26.498Z,16.77
2019-04-04T07:19:59.268Z,17.40
2019-04-04T07:22:32.166Z,18.52
2019-04-04T07:25:06.636Z,16.32
2019-04-04T07:27:40.754Z,13.83
2019-04-04T07:30:15.474Z,16.62
2019-04-04T07:32:48.581Z,14.33
2019-04-04T07:35:21.724Z,18.45
2019-04-04T07:37:57.465Z,16.87
2019-04-04T07:40:29.164Z,16.48
2019-04-04T07:43:02.101Z,14.15
2019-04-04T07:45:34.995Z,14.75
2019-04-04T07:48:07.822Z,15.53
2019-04-04T07:50:40.666Z,13.62
2019-04-04T07:53:13.624Z,13.20
2019-04-04T07:55:46.581Z,14.70
2019-04-04T07:58:19.548Z,14.07
2019-04-04T08:00:52.341Z,15.48
2019-04-04T08:03:25.191Z,11.45
2019-04-04T08:05:58.007Z,14.18
2019-04-04T08:08:30.960Z,12.73
2019-04-04T08:11:03.799Z,15.03
2019-04-04T08:13:36.680Z,14.40
2019-04-04T08:16:09.473Z,12.85
2019-04-04T08:18:42.384Z,15.98
2019-04-04T08:21:15.211Z,13.98
2019-04-04T08:23:48.969Z,12.33
2019-04-04T08:26:21.930Z,13.08
2019-04-04T08:28:54.860Z,12.80
2019-04-04T08:31:27.822Z,14.40
2019-04-04T08:34:00.612Z,13.28
2019-04-04T08:36:35.807Z,12.93
2019-04-04T08:39:12.191Z,14.23
2019-04-04T08:41:45.085Z,12.68
2019-04-04T08:44:17.872Z,15.08
2019-04-04T08:46:51.411Z,13.13
2019-04-04T08:49:24.221Z,12.15
2019-04-04T08:51:56.993Z,13.83
2019-04-04T08:54:29.914Z,14.05
2019-04-04T08:57:02.743Z,12.03
2019-04-04T08:59:35.694Z,13.05
2019-04-04T09:02:08.571Z,12.40
2019-04-04T09:04:41.433Z,13.60
2019-04-04T09:07:14.244Z,12.60
2019-04-04T09:09:47.097Z,13.43
2019-04-04T09:12:21.052Z,13.22
2019-04-04T09:14:53.820Z,10.55
2019-04-04T09:17:26.632Z,12.05
2019-04-04T09:19:59.405Z,11.68
2019-04-04T09:22:32.269Z,9.80
2019-04-04T09:25:05.446Z,11.05
2019-04-04T09:27:38.324Z,9.20
2019-04-04T09:30:12.693Z,9.15
2019-04-04T09:32:45.677Z,7.53
2019-04-04T09:35:18.479Z,9.28
2019-04-04T09:37:51.309Z,9.20
2019-04-04T09:40:24.184Z,9.98
2019-04-04T09:42:57.308Z,10.20
2019-04-04T09:45:30.071Z,9.58
2019-04-04T09:48:03.408Z,10.60
2019-04-04T09:50:36.627Z,10.68
2019-04-04T09:53:10.402Z,10.08
2019-04-04T09:55:43.168Z,9.88
2019-04-04T09:58:16.130Z,10.82
2019-04-04T10:00:50.955Z,10.32
2019-04-04T10:03:24.803Z,10.03
2019-04-04T10:05:57.693Z,9.68
2019-04-04T10:08:30.496Z,10.68
2019-04-04T10:11:03.341Z,8.20
2019-04-04T10:13:36.120Z,9.23
2019-04-04T10:16:08.857Z,9.70
2019-04-04T10:18:41.663Z,9.10
2019-04-04T10:21:14.602Z,8.63
2019-04-04T10:23:47.422Z,7.55
2019-04-04T10:26:21.160Z,8.90
2019-04-04T10:28:53.922Z,8.75
2019-04-04T10:31:26.765Z,8.90
2019-04-04T10:33:59.595Z,8.38
2019-04-04T10:36:32.469Z,8.00
2019-04-04T10:39:08.624Z,8.15
2019-04-04T10:41:41.910Z,7.60
2019-04-04T10:44:14.841Z,8.05
2019-04-04T10:46:47.885Z,8.68
2019-04-04T10:49:20.655Z,8.05
2019-04-04T10:51:53.488Z,8.10
2019-04-04T10:54:26.332Z,7.20
2019-04-04T10:56:59.181Z,7.58
2019-04-04T10:59:32.264Z,7.50
2019-04-04T11:02:05.230Z,7.30
2019-04-04T11:04:38.362Z,5.87
2019-04-04T11:07:11.595Z,6.78
2019-04-04T11:09:44.637Z,6.75
2019-04-04T11:12:17.624Z,6.78
2019-04-04T11:14:50.464Z,8.55
2019-04-04T11:17:23.444Z,8.18
2019-04-04T11:19:56.330Z,7.33
2019-04-04T11:22:29.163Z,7.50
2019-04-04T11:25:02.209Z,7.97
2019-04-04T11:27:35.214Z,6.55
2019-04-04T11:30:10.403Z,8.30
2019-04-04T11:32:43.218Z,8.28
2019-04-04T11:35:16.119Z,7.20
2019-04-04T11:37:48.956Z,8.40
2019-04-04T11:40:21.952Z,8.60
2019-04-04T11:42:54.783Z,7.60
2019-04-04T11:45:27.632Z,8.20
2019-04-04T11:48:00.387Z,7.20
2019-04-04T11:50:33.438Z,7.40
2019-04-04T11:53:06.212Z,7.47
2019-04-04T11:55:39.660Z,7.90
2019-04-04T11:58:12.594Z,5.92
2019-04-04T12:00:47.386Z,6.28
2019-04-04T12:03:20.278Z,7.17
2019-04-04T12:05:53.118Z,7.00
2019-04-04T12:08:25.986Z,7.65
2019-04-04T12:10:58.808Z,6.65
2019-04-04T12:13:31.747Z,8.63
2019-04-04T12:16:04.605Z,7.37
2019-04-04T12:18:37.392Z,8.18
2019-04-04T12:21:10.252Z,8.33
2019-04-04T12:23:43.070Z,8.30
2019-04-04T12:26:16.002Z,7.17
2019-04-04T12:28:48.827Z,6.90
2019-04-04T12:31:21.683Z,8.10
2019-04-04T12:33:54.709Z,7.40
2019-04-04T12:36:27.622Z,7.12
2019-04-04T12:39:00.519Z,8.23
2019-04-04T12:41:35.017Z,8.15
2019-04-04T12:44:07.954Z,8.80
2019-04-04T12:46:42.487Z,7.20
2019-04-04T12:49:15.592Z,9.00
2019-04-04T12:51:48.654Z,7.28
2019-04-04T12:54:21.499Z,6.50
2019-04-04T12:56:54.319Z,7.35
2019-04-04T12:59:27.108Z,8.35
2019-04-04T13:01:59.911Z,9.15
2019-04-04T13:04:32.713Z,8.40
2019-04-04T13:07:06.028Z,8.20
2019-04-04T13:09:38.845Z,8.00
2019-04-04T13:12:11.717Z,7.37
2019-04-04T13:14:44.582Z,7.78
2019-04-04T13:17:17.469Z,8.33
2019-04-04T13:19:50.314Z,6.70
2019-04-04T13:22:23.169Z,7.35
2019-04-04T13:24:55.957Z,8.05
2019-04-04T13:27:28.868Z,9.58
2019-04-04T13:30:01.656Z,9.05
2019-04-04T13:32:35.539Z,7.72
2019-04-04T13:35:08.859Z,8.68
2019-04-04T13:37:41.622Z,7.17
2019-04-04T13:40:14.443Z,7.10
2019-04-04T13:42:47.362Z,7.65
2019-04-04T13:45:20.259Z,6.83
2019-04-04T13:47:54.268Z,6.58
2019-04-04T13:50:27.233Z,6.37
2019-04-04T13:53:00.537Z,6.33
2019-04-04T13:55:33.419Z,7.03
2019-04-04T13:58:07.362Z,7.65
2019-04-04T14:00:40.203Z,7.12
2019-04-04T14:03:13.145Z,6.33
2019-04-04T14:05:46.259Z,7.72
2019-04-04T14:08:19.163Z,7.40
2019-04-04T14:10:58.063Z,6.70
2019-04-04T14:13:26.526Z,7.08
2019-04-04T14:15:59.336Z,5.90
2019-04-04T14:18:39.542Z,5.92
2019-04-04T14:21:06.851Z,6.22
2019-04-04T14:23:39.720Z,7.33
2019-04-04T14:26:12.543Z,6.33
2019-04-04T14:28:46.321Z,6.42
2019-04-04T14:31:19.342Z,6.17
2019-04-04T14:33:52.621Z,6.37
2019-04-04T14:36:26.233Z,6.62
2019-04-04T14:38:59.246Z,6.87
2019-04-04T14:41:35.787Z,7.50
2019-04-04T14:44:08.631Z,7.70
2019-04-04T14:46:41.636Z,6.20
2019-04-04T14:49:15.170Z,6.90
2019-04-04T14:51:48.094Z,5.97
2019-04-04T14:54:21.032Z,6.12
2019-04-04T14:56:53.892Z,6.80
2019-04-04T14:59:27.026Z,7.72
2019-04-04T15:02:00.140Z,6.83
2019-04-04T15:04:34.991Z,6.53
2019-04-04T15:07:11.985Z,5.90
2019-04-04T15:09:44.970Z,5.95
2019-04-04T15:12:18.339Z,5.87
2019-04-04T15:14:51.486Z,6.70
2019-04-04T15:17:24.280Z,5.87
2019-04-04T15:19:57.145Z,6.03
2019-04-04T15:22:31.924Z,6.20
2019-04-04T15:25:04.901Z,5.92
2019-04-04T15:27:39.337Z,6.83
2019-04-04T15:30:16.266Z,6.75
2019-04-04T15:32:49.214Z,6.40
2019-04-04T15:35:22.074Z,6.40
2019-04-04T15:37:55.214Z,5.45
2019-04-04T15:40:28.122Z,5.60
2019-04-04T15:43:00.953Z,5.80
2019-04-04T15:45:34.083Z,5.60
2019-04-04T15:48:06.881Z,5.58
2019-04-04T15:50:39.663Z,8.85
2019-04-04T15:53:12.479Z,7.58
2019-04-04T15:55:45.426Z,5.87
2019-04-04T15:58:18.305Z,6.08
2019-04-04T16:00:52.335Z,6.25
2019-04-04T16:03:25.500Z,8.08
2019-04-04T16:05:58.274Z,6.70
2019-04-04T16:08:33.306Z,7.40
2019-04-04T16:11:06.488Z,7.47
2019-04-04T16:13:39.383Z,6.03
2019-04-04T16:16:12.162Z,5.50
2019-04-04T16:18:46.044Z,9.98
2019-04-04T16:21:19.862Z,7.12
2019-04-04T16:23:52.664Z,7.53
2019-04-04T16:26:25.421Z,7.80
2019-04-04T16:28:58.696Z,9.50
2019-04-04T16:31:34.364Z,7.75
2019-04-04T16:34:06.117Z,9.25
2019-04-04T16:36:38.909Z,8.85
2019-04-04T16:39:11.719Z,7.75
2019-04-04T16:41:44.593Z,6.20
2019-04-04T16:44:17.402Z,7.45
2019-04-04T16:46:50.254Z,6.70
2019-04-04T16:49:23.054Z,6.33
2019-04-04T16:51:57.133Z,6.58
2019-04-04T16:54:29.973Z,7.67
2019-04-04T16:57:03.765Z,6.08
2019-04-04T16:59:36.624Z,7.30
2019-04-04T17:02:09.752Z,6.92
2019-04-04T17:04:42.657Z,8.20
2019-04-04T17:07:15.584Z,13.95
2019-04-04T17:09:48.917Z,11.33
2019-04-04T17:12:21.769Z,13.88
2019-04-04T17:14:54.650Z,14.18
2019-04-04T17:17:27.591Z,9.43
2019-04-04T17:20:00.769Z,7.00
2019-04-04T17:22:33.858Z,7.90
2019-04-04T17:25:07.923Z,7.35
2019-04-04T17:27:41.137Z,5.60
2019-04-04T17:30:15.048Z,7.33
2019-04-04T17:32:49.608Z,6.65
2019-04-04T17:35:22.796Z,6.92
2019-04-04T17:37:55.650Z,8.33
2019-04-04T17:40:28.453Z,9.65
2019-04-04T17:43:02.272Z,8.73
2019-04-04T17:45:35.640Z,9.58
2019-04-04T17:48:08.567Z,9.08
2019-04-04T17:50:41.628Z,8.68
2019-04-04T17:53:15.510Z,8.43
2019-04-04T17:55:49.958Z,11.65
2019-04-04T17:58:23.001Z,12.37
2019-04-04T18:00:56.282Z,9.98
2019-04-04T18:03:29.342Z,9.33
2019-04-04T18:06:02.135Z,7.50
2019-04-04T18:08:35.070Z,7.10
2019-04-04T18:11:08.139Z,6.92
2019-04-04T18:13:41.068Z,7.58
2019-04-04T18:16:14.038Z,6.75
2019-04-04T18:18:46.817Z,7.65
2019-04-04T18:21:19.604Z,6.45
2019-04-04T18:23:52.478Z,6.55
2019-04-04T18:26:25.355Z,13.30
2019-04-04T18:28:58.236Z,8.90
2019-04-04T18:31:31.132Z,10.60
2019-04-04T18:34:04.258Z,10.78
2019-04-04T18:36:37.543Z,14.95
2019-04-04T18:39:11.458Z,14.07
2019-04-04T18:41:44.403Z,12.58
2019-04-04T18:44:17.352Z,15.48
2019-04-04T18:46:50.168Z,17.92
2019-04-04T18:49:23.037Z,16.37
2019-04-04T18:51:55.957Z,13.28
2019-04-04T18:54:28.792Z,16.70
2019-04-04T18:57:01.889Z,19.60
2019-04-04T18:59:34.819Z,21.45
2019-04-04T19:02:07.638Z,37.23
2019-04-04T19:04:40.687Z,32.38
2019-04-04T19:07:13.574Z,33.53
2019-04-04T19:09:46.417Z,26.50
2019-04-04T19:12:19.263Z,28.60
2019-04-04T19:14:52.082Z,25.90
2019-04-04T19:17:24.929Z,23.80
2019-04-04T19:19:57.811Z,31.95
2019-04-04T19:22:31.266Z,29.67
2019-04-04T19:25:04.243Z,32.17
2019-04-04T19:27:37.404Z,34.63
2019-04-04T19:30:11.729Z,32.25
2019-04-04T19:32:44.627Z,25.43
2019-04-04T19:35:18.458Z,22.65
2019-04-04T19:38:00.043Z,20.00
2019-04-04T19:40:25.972Z,17.77
2019-04-04T19:42:58.821Z,21.65
2019-04-04T19:45:31.707Z,20.12
2019-04-04T19:48:04.703Z,25.27
2019-04-04T19:50:39.152Z,28.98
2019-04-04T19:53:12.356Z,27.75
2019-04-04T19:55:45.360Z,28.52
2019-04-04T19:58:18.222Z,28.25
2019-04-04T20:00:51.505Z,22.65
2019-04-04T20:03:24.350Z,24.87
2019-04-04T20:05:57.238Z,23.57
2019-04-04T20:08:30.109Z,19.57
2019-04-04T20:11:02.982Z,21.50
2019-04-04T20:13:35.889Z,25.55
2019-04-04T20:16:08.874Z,25.88
2019-04-04T20:18:41.827Z,25.17
2019-04-04T20:21:14.845Z,31.60
2019-04-04T20:23:47.678Z,30.27
2019-04-04T20:26:20.557Z,31.55
2019-04-04T20:28:53.440Z,31.85
2019-04-04T20:31:26.644Z,25.62
2019-04-04T20:34:02.374Z,31.77
2019-04-04T20:36:33.972Z,30.35
2019-04-04T20:39:09.387Z,31.55
2019-04-04T20:41:44.611Z,30.48
2019-04-04T20:44:19.897Z,28.15
2019-04-04T20:46:52.812Z,27.30
2019-04-04T20:49:25.671Z,24.90
2019-04-04T20:51:58.568Z,25.77
2019-04-04T20:54:31.355Z,24.02
2019-04-04T20:57:04.219Z,25.77
2019-04-04T20:59:36.984Z,24.72
2019-04-04T21:02:09.752Z,23.25
2019-04-04T21:04:43.709Z,25.43
2019-04-04T21:07:16.497Z,25.90
2019-04-04T21:09:49.296Z,23.12
2019-04-04T21:12:22.081Z,23.30
2019-04-04T21:14:56.191Z,21.17
2019-04-04T21:17:29.145Z,22.95
2019-04-04T21:20:05.723Z,24.18
2019-04-04T21:22:38.654Z,24.20
2019-04-04T21:25:11.841Z,25.25
2019-04-04T21:27:44.622Z,26.82
2019-04-04T21:30:18.408Z,24.80
2019-04-04T21:32:51.378Z,25.32
2019-04-04T21:35:24.164Z,24.95
2019-04-04T21:37:56.944Z,20.60
2019-04-04T21:40:29.768Z,21.52
2019-04-04T21:43:02.751Z,19.90
2019-04-04T21:45:35.550Z,22.40
2019-04-04T21:48:08.327Z,23.57
2019-04-04T21:50:41.117Z,20.27
2019-04-04T21:53:13.923Z,24.85
2019-04-04T21:55:46.727Z,22.82
2019-04-04T21:58:20.475Z,22.27
2019-04-04T22:00:55.010Z,24.37
2019-04-04T22:03:28.060Z,23.87
2019-04-04T22:06:00.908Z,24.70
2019-04-04T22:08:33.767Z,23.80
2019-04-04T22:11:06.568Z,24.32
2019-04-04T22:13:39.332Z,26.62
2019-04-04T22:16:12.188Z,25.97
2019-04-04T22:18:45.048Z,24.90
2019-04-04T22:21:17.855Z,25.90
2019-04-04T22:23:50.751Z,22.80
2019-04-04T22:26:23.859Z,24.43
2019-04-04T22:28:56.660Z,32.08
2019-04-04T22:31:29.506Z,34.85
2019-04-04T22:34:02.439Z,24.10
2019-04-04T22:36:35.339Z,21.25
2019-04-04T22:39:09.552Z,20.97
2019-04-04T22:41:42.418Z,21.70
2019-04-04T22:44:15.421Z,21.02
2019-04-04T22:46:49.730Z,20.80
2019-04-04T22:49:22.459Z,21.68
2019-04-04T22:51:55.375Z,22.42
2019-04-04T22:54:28.164Z,20.52
2019-04-04T22:57:01.032Z,20.80
2019-04-04T22:59:33.977Z,21.97
2019-04-04T23:02:06.841Z,20.80
2019-04-04T23:04:39.710Z,21.97
2019-04-04T23:07:12.625Z,26.40
2019-04-04T23:09:45.585Z,24.47
2019-04-04T23:12:18.430Z,21.85
2019-04-04T23:14:51.385Z,24.82
2019-04-04T23:17:24.170Z,20.40
2019-04-04T23:19:57.335Z,21.57
2019-04-04T23:22:30.171Z,22.82
2019-04-04T23:25:03.170Z,21.55
2019-04-04T23:27:36.180Z,21.15
2019-04-04T23:30:09.480Z,22.40
2019-04-04T23:32:42.254Z,24.85
2019-04-04T23:35:16.655Z,23.92
2019-04-04T23:37:49.822Z,19.30
2019-04-04T23:40:22.629Z,21.00
2019-04-04T23:42:55.455Z,20.40
2019-04-04T23:45:28.469Z,20.90
2019-04-04T23:48:01.326Z,21.57
2019-04-04T23:50:34.428Z,18.50
2019-04-04T23:53:08.564Z,20.45
2019-04-04T23:55:41.309Z,19.77
2019-04-04T23:58:12.827Z,20.82
